Time;durP1;ratioP1;P1;durP2;ratioP2;P2;SDS_P1;SDS_P2;PMS_P1;PMS_P2;Temp;Humidity;BMP_temperature;BMP_pressure;BME280_temperature;BME280_humidity;BME280_pressure;Samples;Min_cycle;Max_cycle;Signal;HPM_P1;HPM_P2
2023/09/19 00:01:12;;;;;;;4.80;4.40;;;;;;;18.03;60.26;95262.72;5116806;28;20219;-66
2023/09/19 00:03:42;;;;;;;5.25;4.75;;;;;;;18.04;60.34;95266.28;5117298;28;20211;-66
2023/09/19 00:06:13;;;;;;;5.40;4.90;;;;;;;18.01;60.30;95259.53;5117492;27;20200;-66
2023/09/19 00:08:43;;;;;;;4.82;4.43;;;;;;;17.98;60.19;95274.28;5117052;28;20202;-66
2023/09/19 00:11:11;;;;;;;4.90;4.55;;;;;;;17.97;60.24;95267.09;5132736;27;20677;-66
2023/09/19 00:13:40;;;;;;;5.10;4.60;;;;;;;17.98;60.64;95260.31;5133004;27;20218;-66
2023/09/19 00:16:10;;;;;;;5.43;4.55;;;;;;;17.96;60.56;95271.06;5115635;28;20203;-65
2023/09/19 00:18:38;;;;;;;4.90;4.43;;;;;;;17.95;60.93;95260.31;5116131;28;20206;-65
2023/09/19 00:21:06;;;;;;;4.80;4.40;;;;;;;17.87;60.92;95258.72;5116775;28;20186;-65
2023/09/19 00:23:40;;;;;;;4.78;4.38;;;;;;;17.85;61.06;95258.28;5116171;28;20201;-65
2023/09/19 00:26:09;;;;;;;5.03;4.63;;;;;;;17.84;61.22;95254.72;5115874;28;20225;-65
2023/09/19 00:28:37;;;;;;;5.18;4.50;;;;;;;17.79;61.37;95249.50;5127061;27;20234;-65
2023/09/19 00:31:06;;;;;;;4.88;4.47;;;;;;;17.78;61.33;95248.72;5119100;27;20219;-65
2023/09/19 00:33:34;;;;;;;5.43;4.50;;;;;;;17.79;61.69;95241.97;5136981;27;20230;-65
2023/09/19 00:36:05;;;;;;;5.00;4.60;;;;;;;17.79;61.37;95243.91;5119290;27;20191;-65
2023/09/19 00:38:33;;;;;;;5.00;4.60;;;;;;;17.73;61.82;95243.50;5136106;27;20191;-65
2023/09/19 00:41:05;;;;;;;5.30;4.90;;;;;;;17.71;61.89;95254.25;5136606;27;20183;-65
2023/09/19 00:43:34;;;;;;;5.25;4.85;;;;;;;17.69;62.46;95251.06;5136893;27;20237;-65
2023/09/19 00:46:06;;;;;;;5.35;4.90;;;;;;;17.66;62.58;95251.84;5118681;27;20203;-65
2023/09/19 00:48:40;;;;;;;5.82;5.22;;;;;;;17.65;62.83;95258.63;5118715;27;20216;-65
2023/09/19 00:51:06;;;;;;;5.47;4.97;;;;;;;17.65;62.61;95249.47;5136304;27;20289;-65
2023/09/19 00:53:35;;;;;;;5.45;5.03;;;;;;;17.64;62.45;95250.63;5136703;27;20190;-65
2023/09/19 00:56:07;;;;;;;5.10;4.60;;;;;;;17.62;62.10;95253.03;5136608;27;20203;-65
2023/09/19 00:58:38;;;;;;;5.68;5.18;;;;;;;17.56;62.49;95250.63;5136343;27;20566;-65
2023/09/19 01:01:06;;;;;;;6.10;4.90;;;;;;;17.52;62.57;95241.44;5118529;27;20199;-65
2023/09/19 01:03:34;;;;;;;5.80;5.30;;;;;;;17.55;62.56;95242.66;5118447;27;20203;-65
2023/09/19 01:06:03;;;;;;;6.50;5.40;;;;;;;17.51;62.31;95247.44;5136644;27;20191;-66
2023/09/19 01:08:31;;;;;;;5.68;5.07;;;;;;;17.43;62.81;95238.25;5136183;27;20630;-65
2023/09/19 01:11:05;;;;;;;6.00;5.35;;;;;;;17.40;63.37;95241.81;5118458;27;20226;-65
2023/09/19 01:13:43;;;;;;;5.78;5.28;;;;;;;17.41;63.39;95253.75;5136047;27;20520;-65
2023/09/19 01:16:20;;;;;;;5.82;5.20;;;;;;;17.42;63.24;95252.56;5118481;27;20187;-65
2023/09/19 01:18:56;;;;;;;5.70;5.20;;;;;;;17.43;63.64;95249.41;5136282;27;20201;-65
2023/09/19 01:21:29;;;;;;;5.25;4.78;;;;;;;17.43;63.39;95251.34;5118206;28;20191;-65
2023/09/19 01:24:19;;;;;;;5.25;4.80;;;;;;;17.42;63.23;95250.56;5136508;27;20222;-65
2023/09/19 01:27:10;;;;;;;5.45;4.95;;;;;;;17.42;63.27;95252.56;5136333;27;20187;-65
2023/09/19 01:29:41;;;;;;;5.43;4.93;;;;;;;17.39;63.44;95256.91;5135751;28;20249;-65
2023/09/19 01:32:13;;;;;;;5.28;4.60;;;;;;;17.35;63.26;95255.31;5136124;28;20203;-65
2023/09/19 01:34:48;;;;;;;5.25;4.75;;;;;;;17.29;63.31;95250.13;5136172;28;20187;-65
2023/09/19 01:37:35;;;;;;;5.35;4.85;;;;;;;17.26;63.68;95245.34;5135833;28;20483;-65
2023/09/19 01:40:16;;;;;;;6.78;5.43;;;;;;;17.22;63.59;95250.09;5117803;28;20632;-66
2023/09/19 01:42:47;;;;;;;6.75;5.50;;;;;;;17.19;63.27;95255.66;5135277;28;20202;-66
2023/09/19 01:45:19;;;;;;;5.40;5.00;;;;;;;17.12;63.62;95239.69;5117938;28;20263;-66
2023/09/19 01:47:51;;;;;;;5.40;5.00;;;;;;;17.13;63.86;95248.84;5136211;28;20209;-66
2023/09/19 01:50:23;;;;;;;5.95;5.35;;;;;;;17.11;63.62;95246.47;5119753;27;20298;-66
2023/09/19 01:53:00;;;;;;;5.72;5.13;;;;;;;17.11;63.61;95256.81;5139948;27;20205;-66
2023/09/19 01:55:30;;;;;;;5.25;4.85;;;;;;;17.10;63.71;95242.06;5121982;27;20201;-66
2023/09/19 01:58:07;;;;;;;5.60;5.10;;;;;;;17.11;63.76;95246.47;5122590;27;20210;-66
2023/09/19 02:00:39;;;;;;;5.22;4.80;;;;;;;17.09;63.72;95243.25;5122322;27;20194;-66
2023/09/19 02:03:07;;;;;;;6.32;5.60;;;;;;;17.03;64.07;95245.63;5139908;27;20187;-66
2023/09/19 02:05:35;;;;;;;4.95;4.63;;;;;;;16.97;64.10;95247.19;5139016;27;20595;-65
2023/09/19 02:08:04;;;;;;;5.72;4.80;;;;;;;16.95;64.28;95257.91;5140281;27;20193;-65
2023/09/19 02:10:33;;;;;;;5.38;4.97;;;;;;;16.97;64.25;95241.63;5139823;27;20225;-66
2023/09/19 02:13:04;;;;;;;5.22;4.82;;;;;;;16.94;64.23;95247.16;5139505;27;20183;-66
2023/09/19 02:15:34;;;;;;;5.80;5.30;;;;;;;16.91;64.61;95251.53;5139733;27;20187;-65
2023/09/19 02:18:03;;;;;;;5.82;5.22;;;;;;;16.91;64.20;95239.59;5121846;27;20199;-65
2023/09/19 02:20:33;;;;;;;5.35;4.85;;;;;;;16.88;64.02;95248.72;5121801;27;20201;-65
2023/09/19 02:23:02;;;;;;;5.65;5.25;;;;;;;16.83;64.48;95238.75;5121347;27;20198;-65
2023/09/19 02:25:31;;;;;;;5.72;5.22;;;;;;;16.80;64.49;95243.09;5121641;27;20283;-65
2023/09/19 02:28:02;;;;;;;6.25;5.07;;;;;;;16.75;64.22;95243.47;5139391;27;20227;-65
2023/09/19 02:30:32;;;;;;;6.18;5.22;;;;;;;16.71;64.69;95239.06;5121674;27;20211;-65
2023/09/19 02:33:03;;;;;;;5.95;5.30;;;;;;;16.65;64.48;95238.59;5121443;27;20195;-65
2023/09/19 02:35:35;;;;;;;5.85;5.35;;;;;;;16.62;64.97;95239.38;5138484;27;20203;-66
2023/09/19 02:38:06;;;;;;;5.57;4.97;;;;;;;16.65;65.14;95229.47;5121572;27;20202;-65
2023/09/19 02:40:36;;;;;;;7.65;5.40;;;;;;;16.65;64.94;95227.47;5139357;27;20190;-65
2023/09/19 02:43:04;;;;;;;6.25;5.75;;;;;;;16.63;64.92;95224.28;5121127;27;20191;-65
2023/09/19 02:45:33;;;;;;;5.68;5.13;;;;;;;16.61;65.21;95226.66;5138860;27;20587;-65
2023/09/19 02:48:00;;;;;;;6.72;6.03;;;;;;;16.59;65.48;95215.91;5121631;27;20187;-65
2023/09/19 02:50:28;;;;;;;6.20;5.60;;;;;;;16.61;65.56;95215.50;5138724;27;20243;-65
2023/09/19 02:52:58;;;;;;;5.97;5.43;;;;;;;16.61;65.23;95221.06;5138819;27;20507;-66
2023/09/19 02:55:27;;;;;;;6.30;5.70;;;;;;;16.57;65.59;95218.28;5120937;27;20244;-65
2023/09/19 02:57:56;;;;;;;6.10;5.50;;;;;;;16.59;65.37;95207.56;5138975;27;20191;-66
2023/09/19 03:00:25;;;;;;;6.50;5.90;;;;;;;16.59;65.34;95215.09;5138500;27;20195;-65
2023/09/19 03:02:56;;;;;;;5.95;5.43;;;;;;;16.57;65.84;95209.91;5138940;27;20226;-66
2023/09/19 03:05:25;;;;;;;5.53;5.07;;;;;;;16.58;65.30;95202.34;5138357;27;20609;-65
2023/09/19 03:07:55;;;;;;;6.30;5.00;;;;;;;16.57;65.51;95195.19;5121151;27;20191;-65
2023/09/19 03:10:25;;;;;;;6.03;5.53;;;;;;;16.53;65.37;95205.53;5120491;27;20594;-65
2023/09/19 03:12:53;;;;;;;6.00;5.50;;;;;;;16.49;65.44;95205.50;5120692;27;20251;-65
2023/09/19 03:15:22;;;;;;;6.00;5.47;;;;;;;16.51;65.52;95202.31;5138559;27;20209;-65
2023/09/19 03:17:51;;;;;;;11.65;5.97;;;;;;;16.48;65.08;95200.31;5120502;27;20198;-65
2023/09/19 03:20:20;;;;;;;5.70;5.20;;;;;;;16.42;65.42;95202.66;5138497;27;20198;-65
2023/09/19 03:22:49;;;;;;;6.07;5.47;;;;;;;16.39;65.79;95203.44;5138186;27;20522;-66
2023/09/19 03:25:17;;;;;;;6.00;5.47;;;;;;;16.35;66.18;95205.41;5138315;27;20191;-65
2023/09/19 03:27:47;;;;;;;6.32;5.72;;;;;;;16.31;65.90;95201.78;5119874;27;20334;-65
2023/09/19 03:30:14;;;;;;;6.32;5.50;;;;;;;16.30;66.26;95203.78;5137404;27;20201;-65
2023/09/19 03:32:46;;;;;;;6.53;5.60;;;;;;;16.32;66.31;95203.38;5120350;27;20301;-65
2023/09/19 03:35:14;;;;;;;6.95;5.55;;;;;;;16.32;66.67;95209.75;5138179;27;20198;-65
2023/09/19 03:37:43;;;;;;;6.47;5.93;;;;;;;16.29;66.07;95213.28;5120292;27;20626;-65
2023/09/19 03:40:12;;;;;;;8.07;5.80;;;;;;;16.27;66.27;95214.88;5138295;27;20262;-71
2023/09/19 03:42:40;;;;;;;6.93;5.38;;;;;;;16.26;66.39;95216.84;5138061;27;20183;-65
2023/09/19 03:45:11;;;;;;;6.90;5.70;;;;;;;16.24;66.21;95212.88;5119894;27;20195;-65
2023/09/19 03:47:40;;;;;;;6.10;5.50;;;;;;;16.21;66.18;95216.41;5120527;27;20193;-66
2023/09/19 03:50:10;;;;;;;6.43;5.43;;;;;;;16.19;66.32;95214.00;5138162;27;20202;-65
2023/09/19 03:52:39;;;;;;;5.90;5.40;;;;;;;16.18;66.13;95219.97;5119413;27;20714;-65
2023/09/19 03:55:06;;;;;;;6.13;5.53;;;;;;;16.18;66.44;95225.53;5137606;27;20189;-65
2023/09/19 03:57:36;;;;;;;6.30;5.60;;;;;;;16.20;66.32;95225.97;5137492;27;20199;-65
2023/09/19 04:00:10;;;;;;;6.18;5.30;;;;;;;16.18;66.68;95220.75;5120149;27;20191;-65
2023/09/19 04:02:40;;;;;;;5.95;5.45;;;;;;;16.15;66.18;95227.09;5119606;27;20198;-65
2023/09/19 04:05:08;;;;;;;5.97;5.38;;;;;;;16.11;66.64;95223.50;5136339;27;20584;-65
2023/09/19 04:07:36;;;;;;;6.25;5.75;;;;;;;16.06;66.33;95233.00;5138069;27;20673;-65
2023/09/19 04:10:08;;;;;;;6.55;5.88;;;;;;;16.03;66.89;95246.88;5119401;27;20199;-65
2023/09/19 04:12:37;;;;;;;9.02;5.57;;;;;;;16.02;66.80;95245.28;5118585;27;20524;-65
2023/09/19 04:15:04;;;;;;;6.38;5.78;;;;;;;16.03;66.86;95238.53;5136570;27;20207;-65
2023/09/19 04:17:33;;;;;;;7.95;5.75;;;;;;;16.06;66.83;95237.75;5119472;27;20234;-66
2023/09/19 04:20:07;;;;;;;5.72;5.18;;;;;;;16.07;66.99;95229.03;5137098;27;20179;-66
2023/09/19 04:22:35;;;;;;;6.05;5.45;;;;;;;16.06;67.08;95235.78;5119159;27;20545;-65
2023/09/19 04:25:03;;;;;;;6.32;5.70;;;;;;;16.06;67.02;95227.44;5137516;27;20202;-65
2023/09/19 04:27:30;;;;;;;8.70;5.72;;;;;;;16.12;66.97;95227.84;5136569;27;20190;-65
2023/09/19 04:29:59;;;;;;;9.05;6.38;;;;;;;16.15;67.14;95231.88;5119134;27;20281;-65
2023/09/19 04:32:32;;;;;;;9.40;6.55;;;;;;;16.14;66.31;95225.50;5136273;27;20231;-65
2023/09/19 04:35:03;;;;;;;10.60;6.93;;;;;;;16.04;66.71;95231.78;5119244;27;20198;-65
2023/09/19 04:37:33;;;;;;;10.55;7.10;;;;;;;15.96;66.58;95219.00;5119219;27;20221;-65
2023/09/19 04:40:04;;;;;;;8.45;6.57;;;;;;;15.94;66.79;95227.72;5136617;27;20602;-65
2023/09/19 04:42:34;;;;;;;9.93;7.55;;;;;;;15.96;66.85;95225.34;5118981;27;20244;-65
2023/09/19 04:45:04;;;;;;;13.18;7.18;;;;;;;16.00;67.33;95220.63;5136096;27;20290;-65
2023/09/19 04:47:32;;;;;;;10.25;6.80;;;;;;;15.99;67.02;95216.25;5136775;27;20187;-65
2023/09/19 04:50:01;;;;;;;8.90;6.32;;;;;;;16.00;67.12;95225.38;5136764;27;20199;-65
2023/09/19 04:52:33;;;;;;;8.43;6.40;;;;;;;16.05;67.34;95213.88;5136693;27;20210;-65
2023/09/19 04:55:02;;;;;;;6.65;5.97;;;;;;;16.08;67.32;95222.25;5136856;27;20191;-65
2023/09/19 04:57:31;;;;;;;7.63;6.75;;;;;;;16.10;67.18;95222.69;5136661;27;20266;-65
2023/09/19 04:59:59;;;;;;;7.05;6.32;;;;;;;16.18;67.59;95212.41;5136533;27;20195;-65
2023/09/19 05:02:31;;;;;;;7.95;6.50;;;;;;;16.21;67.29;95210.84;5118450;27;20191;-65
2023/09/19 05:05:00;;;;;;;6.68;5.95;;;;;;;16.25;67.33;95211.69;5136679;27;20175;-65
2023/09/19 05:07:28;;;;;;;7.70;6.78;;;;;;;16.27;67.42;95212.09;5136864;27;20195;-65
2023/09/19 05:09:58;;;;;;;7.35;6.65;;;;;;;16.31;67.65;95216.50;5118566;27;20209;-65
2023/09/19 05:12:27;;;;;;;9.73;7.10;;;;;;;16.35;67.31;95214.53;5136546;27;20199;-65
2023/09/19 05:14:55;;;;;;;7.57;6.88;;;;;;;16.39;67.45;95213.78;5136465;27;20189;-65
2023/09/19 05:17:24;;;;;;;8.18;6.55;;;;;;;16.44;67.15;95219.75;5136050;27;20191;-65
2023/09/19 05:19:53;;;;;;;8.00;7.05;;;;;;;16.49;67.29;95222.19;5118543;28;20226;-65
2023/09/19 05:22:24;;;;;;;8.45;6.60;;;;;;;16.52;67.67;95209.47;5136118;27;20732;-65
2023/09/19 05:24:52;;;;;;;7.53;6.82;;;;;;;16.54;67.34;95218.25;5136233;27;20199;-65
2023/09/19 05:27:23;;;;;;;7.03;6.32;;;;;;;16.55;67.27;95215.06;5118260;27;20226;-65
2023/09/19 05:29:52;;;;;;;6.82;6.13;;;;;;;16.57;67.68;95214.69;5114409;28;20235;-65
2023/09/19 05:32:21;;;;;;;6.90;6.20;;;;;;;16.60;67.98;95219.50;5115858;28;20208;-65
2023/09/19 05:34:52;;;;;;;7.45;6.80;;;;;;;16.65;67.67;95215.53;5114622;28;20202;-64
2023/09/19 05:37:21;;;;;;;9.05;6.70;;;;;;;16.70;67.70;95210.38;5114856;28;20252;-65
2023/09/19 05:39:49;;;;;;;10.13;6.38;;;;;;;16.75;67.80;95198.91;5115479;28;20191;-65
2023/09/19 05:42:17;;;;;;;7.40;6.63;;;;;;;16.78;67.64;95197.34;5114739;28;20203;-65
2023/09/19 05:44:46;;;;;;;9.23;7.32;;;;;;;16.80;67.60;95197.75;5115588;28;20184;-65
2023/09/19 05:47:13;;;;;;;7.82;6.85;;;;;;;16.82;67.45;95200.94;5115345;28;20198;-65
2023/09/19 05:49:41;;;;;;;9.70;7.28;;;;;;;16.84;67.92;95204.91;5115223;28;20210;-65
2023/09/19 05:52:08;;;;;;;7.07;6.38;;;;;;;16.88;68.00;95204.94;5114761;28;20320;-65
2023/09/19 05:54:38;;;;;;;9.20;7.07;;;;;;;16.91;67.59;95201.38;5114709;28;20203;-65
2023/09/19 05:57:06;;;;;;;7.15;6.55;;;;;;;16.95;67.61;95199.41;5115426;28;20202;-65
2023/09/19 05:59:34;;;;;;;8.27;6.85;;;;;;;16.97;67.72;95196.25;5115113;28;20674;-65
2023/09/19 06:02:06;;;;;;;9.02;7.05;;;;;;;17.01;67.30;95197.06;5115428;28;20184;-65
2023/09/19 06:04:34;;;;;;;11.13;6.68;;;;;;;17.05;67.72;95200.66;5114834;28;20283;-65
2023/09/19 06:07:03;;;;;;;7.82;6.93;;;;;;;17.08;67.51;95192.31;5114313;28;20512;-65
2023/09/19 06:09:32;;;;;;;7.03;6.43;;;;;;;17.10;67.50;95189.13;5114523;28;20196;-64
2023/09/19 06:12:03;;;;;;;8.77;6.90;;;;;;;17.17;67.61;95197.50;5114518;28;20216;-65
2023/09/19 06:14:32;;;;;;;7.10;6.50;;;;;;;17.18;67.03;95187.97;5131667;28;20231;-65
2023/09/19 06:17:00;;;;;;;8.00;6.60;;;;;;;17.16;66.89;95189.53;5115016;28;20603;-64
2023/09/19 06:19:30;;;;;;;7.13;6.43;;;;;;;17.19;66.75;95185.97;5114322;28;20234;-64
2023/09/19 06:22:00;;;;;;;7.45;6.68;;;;;;;17.24;67.15;95180.00;5114180;28;20192;-65
2023/09/19 06:24:28;;;;;;;7.38;6.72;;;;;;;17.33;66.82;95178.47;5115429;28;20180;-65
2023/09/19 06:26:56;;;;;;;8.10;6.65;;;;;;;17.40;66.51;95176.88;5131319;28;20200;-64
2023/09/19 06:29:24;;;;;;;8.27;6.43;;;;;;;17.46;66.37;95170.50;5131286;28;20287;-64
2023/09/19 06:31:52;;;;;;;7.93;7.00;;;;;;;17.55;66.43;95170.16;5117489;28;20235;-65
2023/09/19 06:34:19;;;;;;;7.70;6.90;;;;;;;17.65;66.28;95183.31;5135682;28;20229;-65
2023/09/19 06:36:49;;;;;;;7.90;7.10;;;;;;;17.72;65.63;95179.72;5120052;27;20526;-65
2023/09/19 06:39:16;;;;;;;7.70;6.90;;;;;;;17.76;65.68;95180.59;5139440;27;20227;-65
2023/09/19 06:41:45;;;;;;;6.85;6.13;;;;;;;17.85;65.50;95174.59;5121388;27;20298;-64
2023/09/19 06:44:13;;;;;;;7.00;6.30;;;;;;;17.89;64.95;95178.97;5121546;27;20535;-65
2023/09/19 06:46:46;;;;;;;8.25;7.47;;;;;;;17.91;64.42;95175.81;5121247;27;20206;-65
2023/09/19 06:49:13;;;;;;;7.53;6.82;;;;;;;17.89;64.40;95176.19;5121088;27;20214;-65
2023/09/19 06:51:44;;;;;;;8.15;7.15;;;;;;;17.86;64.36;95182.56;5120968;27;20195;-64
2023/09/19 06:54:13;;;;;;;8.73;7.03;;;;;;;17.86;64.59;95190.94;5121036;27;20205;-65
2023/09/19 06:56:43;;;;;;;7.88;6.78;;;;;;;17.88;64.35;95190.56;5138995;27;20622;-64
2023/09/19 06:59:14;;;;;;;8.20;7.40;;;;;;;17.91;64.38;95196.13;5138851;27;20194;-64
2023/09/19 07:01:44;;;;;;;8.38;7.45;;;;;;;17.95;64.15;95196.13;5139007;27;20192;-65
2023/09/19 07:04:12;;;;;;;8.38;7.57;;;;;;;18.00;64.25;95201.31;5138901;27;20266;-65
2023/09/19 07:06:41;;;;;;;8.55;7.10;;;;;;;18.02;63.86;95196.16;5139559;27;20227;-64
2023/09/19 07:09:08;;;;;;;8.65;6.40;;;;;;;18.07;63.81;95192.16;5120798;27;20210;-65
2023/09/19 07:11:41;;;;;;;8.93;6.60;;;;;;;18.14;63.71;95192.94;5121070;27;20203;-65
2023/09/19 07:14:11;;;;;;;7.05;5.80;;;;;;;18.18;63.53;95187.38;5138727;27;20179;-65
2023/09/19 07:16:44;;;;;;;7.07;5.82;;;;;;;18.21;63.47;95192.16;5120668;27;20209;-64
2023/09/19 07:19:12;;;;;;;7.57;5.97;;;;;;;18.24;63.02;95200.53;5120424;27;20260;-64
2023/09/19 07:21:40;;;;;;;6.72;6.03;;;;;;;18.28;62.84;95194.94;5138514;27;20194;-64
2023/09/19 07:24:11;;;;;;;6.63;6.03;;;;;;;18.31;62.90;95193.34;5120992;27;20195;-64
2023/09/19 07:26:41;;;;;;;7.93;6.07;;;;;;;18.35;63.14;95194.16;5120884;27;20199;-64
2023/09/19 07:29:08;;;;;;;6.38;5.38;;;;;;;18.38;62.97;95188.56;5137751;27;20665;-64
2023/09/19 07:31:37;;;;;;;8.07;5.35;;;;;;;18.43;63.06;95196.53;5120032;27;20606;-64
2023/09/19 07:34:05;;;;;;;6.78;5.57;;;;;;;18.46;62.24;95195.72;5138102;27;20290;-65
2023/09/19 07:36:34;;;;;;;6.00;5.47;;;;;;;18.49;62.42;95202.50;5138408;27;20209;-65
2023/09/19 07:39:06;;;;;;;7.57;6.00;;;;;;;18.53;62.24;95192.13;5119784;27;20209;-64
2023/09/19 07:41:34;;;;;;;10.35;5.70;;;;;;;18.56;62.50;95199.72;5137892;27;20229;-65
2023/09/19 07:44:04;;;;;;;8.88;6.35;;;;;;;18.60;62.25;95197.69;5137872;27;20179;-64
2023/09/19 07:46:33;;;;;;;8.40;5.95;;;;;;;18.63;62.10;95191.31;5120228;27;20198;-65
2023/09/19 07:49:01;;;;;;;7.53;5.90;;;;;;;18.63;61.99;95184.94;5119743;27;20297;-65
2023/09/19 07:51:29;;;;;;;7.53;6.18;;;;;;;18.65;61.89;95188.91;5119839;27;20198;-64
2023/09/19 07:53:58;;;;;;;7.07;6.38;;;;;;;18.69;62.08;95194.47;5119694;27;20225;-65
2023/09/19 07:56:27;;;;;;;8.18;6.05;;;;;;;18.73;62.34;95190.50;5119556;27;20213;-64
2023/09/19 07:58:57;;;;;;;6.32;5.72;;;;;;;18.78;62.43;95191.31;5119654;27;20195;-64
2023/09/19 08:01:27;;;;;;;6.90;6.18;;;;;;;18.84;62.52;95192.47;5119637;27;20697;-64
2023/09/19 08:03:54;;;;;;;7.20;5.72;;;;;;;18.88;62.37;95182.09;5138206;27;20183;-65
2023/09/19 08:06:23;;;;;;;6.65;5.88;;;;;;;18.93;62.42;95178.88;5137773;27;20203;-65
2023/09/19 08:08:53;;;;;;;7.03;5.57;;;;;;;18.98;62.21;95178.47;5137689;27;20194;-65
2023/09/19 08:11:24;;;;;;;7.95;5.60;;;;;;;19.03;61.54;95182.84;5119172;27;20243;-64
2023/09/19 08:13:52;;;;;;;6.82;6.07;;;;;;;19.05;61.83;95174.84;5119287;27;20230;-65
2023/09/19 08:16:22;;;;;;;6.25;5.65;;;;;;;19.12;61.63;95174.81;5137576;27;20221;-64
2023/09/19 08:18:55;;;;;;;7.53;5.90;;;;;;;19.18;61.41;95167.63;5119477;27;20195;-64
2023/09/19 08:21:24;;;;;;;6.47;5.78;;;;;;;19.21;61.11;95161.22;5137350;27;20187;-65
2023/09/19 08:23:52;;;;;;;7.25;6.32;;;;;;;19.26;61.08;95165.59;5119299;27;20195;-65
2023/09/19 08:26:21;;;;;;;10.48;8.88;;;;;;;19.31;60.66;95165.16;5119490;27;20191;-64
2023/09/19 08:28:50;;;;;;;6.95;6.20;;;;;;;19.36;61.08;95170.34;5115779;28;20568;-65
2023/09/19 08:31:17;;;;;;;6.43;5.70;;;;;;;19.48;60.68;95167.84;5115728;28;20231;-65
2023/09/19 08:33:49;;;;;;;8.25;7.45;;;;;;;19.57;59.89;95177.78;5115604;28;20228;-64
2023/09/19 08:36:22;;;;;;;9.27;7.88;;;;;;;19.64;60.37;95178.56;5116220;28;20539;-64
2023/09/19 08:38:51;;;;;;;9.38;8.07;;;;;;;19.69;59.35;95178.16;5115662;28;20294;-64
2023/09/19 08:41:18;;;;;;;10.15;9.10;;;;;;;19.71;58.76;95166.53;5115159;28;20195;-64
2023/09/19 08:43:47;;;;;;;7.65;6.88;;;;;;;19.70;59.37;95162.94;5116081;28;20240;-65
2023/09/19 08:46:19;;;;;;;8.15;7.35;;;;;;;19.76;59.18;95174.53;5116101;28;20266;-65
2023/09/19 08:48:49;;;;;;;8.00;7.20;;;;;;;19.87;59.09;95160.44;5114990;28;20227;-65
2023/09/19 08:51:28;;;;;;;8.45;7.38;;;;;;;19.87;58.55;95157.66;5115285;28;20191;-64
2023/09/19 08:54:05;;;;;;;9.15;7.95;;;;;;;19.78;58.23;95152.50;5115642;28;20215;-65
2023/09/19 08:56:33;;;;;;;9.45;7.18;;;;;;;19.74;58.80;95156.53;5115309;28;20191;-65
2023/09/19 08:59:07;;;;;;;8.93;6.75;;;;;;;19.80;59.03;95155.69;5114886;28;20188;-64
2023/09/19 09:01:40;;;;;;;6.80;6.10;;;;;;;19.85;58.97;95160.06;5115771;28;20191;-65
2023/09/19 09:04:12;;;;;;;11.50;7.15;;;;;;;19.89;58.35;95158.03;5115195;28;20184;-65
2023/09/19 09:06:44;;;;;;;7.57;6.88;;;;;;;19.93;58.62;95156.00;5132428;27;20206;-65
2023/09/19 09:09:11;;;;;;;8.23;7.43;;;;;;;19.98;58.22;95152.78;5115954;28;20184;-65
2023/09/19 09:11:40;;;;;;;7.32;6.60;;;;;;;20.04;58.38;95148.31;5115361;28;20192;-65
2023/09/19 09:14:08;;;;;;;6.18;5.60;;;;;;;20.13;58.34;95153.44;5115032;28;20216;-64
2023/09/19 09:16:35;;;;;;;5.47;5.07;;;;;;;20.29;58.07;95145.28;5115294;28;20207;-65
2023/09/19 09:19:03;;;;;;;6.97;6.28;;;;;;;20.46;58.02;95143.53;5114955;28;20298;-64
2023/09/19 09:21:35;;;;;;;6.72;6.22;;;;;;;20.47;57.28;95136.72;5114957;28;20188;-65
2023/09/19 09:24:33;;;;;;;7.35;5.82;;;;;;;20.51;57.47;95129.09;5116142;28;20191;-65
2023/09/19 09:27:04;;;;;;;9.32;6.22;;;;;;;20.53;57.23;95129.50;5115024;28;20200;-66
2023/09/19 09:29:54;;;;;;;7.07;6.40;;;;;;;20.56;56.81;95125.88;5132485;27;20239;-65
2023/09/19 09:32:25;;;;;;;7.57;6.88;;;;;;;20.57;56.18;95124.66;5112128;28;20207;-65
2023/09/19 09:34:54;;;;;;;8.25;6.22;;;;;;;20.57;56.71;95119.03;5118081;28;20206;-65
2023/09/19 09:37:24;;;;;;;6.85;6.05;;;;;;;20.71;57.11;95112.50;5117817;28;20199;-65
2023/09/19 09:39:56;;;;;;;7.05;5.38;;;;;;;20.87;57.05;95106.28;5118405;28;20197;-65
2023/09/19 09:42:39;;;;;;;7.88;6.15;;;;;;;21.09;54.95;95107.59;5136156;28;20219;-65
2023/09/19 09:45:17;;;;;;;5.75;5.18;;;;;;;21.24;55.71;95102.63;5135817;28;20179;-65
2023/09/19 09:47:55;;;;;;;6.63;5.85;;;;;;;21.27;54.50;95100.97;5118091;28;20190;-65
2023/09/19 09:50:44;;;;;;;6.32;5.72;;;;;;;21.20;55.11;95095.47;5135293;28;20198;-65
2023/09/19 09:53:25;;;;;;;5.55;5.07;;;;;;;21.10;54.75;95105.63;5117976;28;20215;-65
2023/09/19 09:56:05;;;;;;;6.63;5.47;;;;;;;21.07;55.71;95103.66;5135411;28;20205;-65
2023/09/19 09:58:33;;;;;;;5.90;5.30;;;;;;;21.05;55.34;95100.47;5135658;28;20183;-65
2023/09/19 10:01:08;;;;;;;6.82;6.15;;;;;;;21.01;54.83;95103.31;5117896;28;20594;-65
2023/09/19 10:03:41;;;;;;;7.65;6.70;;;;;;;20.87;55.46;95097.88;5118088;28;20203;-65
2023/09/19 10:09:10;;;;;;;6.85;5.93;;;;;;;20.78;56.12;95095.59;5135761;28;20168;-65
2023/09/19 10:11:44;;;;;;;6.00;5.32;;;;;;;20.81;56.04;95091.97;5119802;27;20621;-65
2023/09/19 10:14:14;;;;;;;5.65;4.65;;;;;;;20.87;56.09;95090.25;5139823;27;20211;-65
2023/09/19 10:16:47;;;;;;;8.20;5.82;;;;;;;20.95;55.81;95090.97;5121697;27;20281;-65
2023/09/19 10:19:21;;;;;;;7.13;5.30;;;;;;;20.97;56.11;95093.38;5139632;27;20239;-65
2023/09/19 10:21:51;;;;;;;6.68;5.80;;;;;;;21.04;55.17;95093.28;5139635;27;20190;-65
2023/09/19 10:24:19;;;;;;;6.35;5.57;;;;;;;21.08;55.34;95100.41;5121491;27;20210;-65
2023/09/19 10:26:50;;;;;;;5.95;5.35;;;;;;;21.10;55.49;95088.81;5121628;27;20203;-65
2023/09/19 10:29:19;;;;;;;7.38;5.80;;;;;;;21.05;55.54;95092.84;5140438;27;20266;-65
2023/09/19 10:31:50;;;;;;;7.95;6.05;;;;;;;21.02;55.49;95090.09;5139743;27;20191;-65
2023/09/19 10:34:19;;;;;;;5.93;5.32;;;;;;;20.99;55.96;95091.75;5139070;27;20634;-65
2023/09/19 10:36:47;;;;;;;6.55;5.22;;;;;;;21.02;55.83;95090.09;5139511;27;20203;-65
2023/09/19 10:39:18;;;;;;;5.68;5.07;;;;;;;21.01;55.95;95089.28;5120890;27;20206;-65
2023/09/19 10:41:54;;;;;;;5.75;5.25;;;;;;;21.04;56.01;95082.84;5139333;27;20184;-65
2023/09/19 10:44:25;;;;;;;8.40;6.13;;;;;;;21.04;55.60;95082.84;5138430;27;20186;-65
2023/09/19 10:46:53;;;;;;;7.15;6.45;;;;;;;21.01;55.62;95069.66;5139064;27;20190;-65
2023/09/19 10:49:21;;;;;;;5.95;5.35;;;;;;;21.03;55.31;95069.25;5139084;27;20183;-65
2023/09/19 10:51:51;;;;;;;6.18;5.57;;;;;;;21.06;55.55;95072.03;5138775;27;20559;-65
2023/09/19 10:54:21;;;;;;;5.32;4.78;;;;;;;21.11;55.50;95063.13;5138847;27;20297;-65
2023/09/19 10:56:52;;;;;;;5.88;5.07;;;;;;;21.13;55.69;95066.31;5120744;27;20203;-65
2023/09/19 10:59:20;;;;;;;5.70;5.20;;;;;;;21.19;55.51;95063.81;5120828;27;20199;-66
2023/09/19 11:01:51;;;;;;;5.90;5.35;;;;;;;21.24;55.37;95062.53;5139140;27;20183;-65
2023/09/19 11:04:26;;;;;;;6.60;5.93;;;;;;;21.28;55.51;95066.09;5120871;27;20202;-65
2023/09/19 11:07:08;;;;;;;6.22;5.35;;;;;;;21.31;55.03;95060.44;5121017;27;20195;-66
2023/09/19 11:09:47;;;;;;;7.45;4.97;;;;;;;21.36;54.80;95053.59;5121073;27;20207;-66
2023/09/19 11:12:50;;;;;;;6.28;5.68;;;;;;;21.39;54.53;95053.56;5120898;27;20199;-65
2023/09/19 11:15:57;;;;;;;6.45;5.28;;;;;;;21.42;54.75;95057.50;5138318;27;20226;-65
2023/09/19 11:18:55;;;;;;;7.30;5.65;;;;;;;21.41;54.73;95055.13;5137663;27;20203;-65
2023/09/19 11:21:56;;;;;;;5.57;5.07;;;;;;;21.45;54.44;95045.44;5137859;27;20183;-65
2023/09/19 11:24:31;;;;;;;6.47;5.70;;;;;;;21.53;54.20;95048.91;5133311;27;20591;-65
2023/09/19 11:27:17;;;;;;;6.45;5.60;;;;;;;21.62;53.61;95049.19;5138199;27;20195;-65
2023/09/19 11:29:47;;;;;;;6.80;6.20;;;;;;;21.74;54.01;95045.78;5097302;28;20326;-66
2023/09/19 11:32:16;;;;;;;6.03;5.40;;;;;;;21.82;53.69;95035.22;5096598;28;20200;-65
2023/09/19 11:34:51;;;;;;;6.13;5.47;;;;;;;21.93;53.17;95029.44;5097554;28;20232;-65
2023/09/19 11:38:15;;;;;;;6.72;5.95;;;;;;;21.95;53.05;95027.78;5113453;28;20298;-65
2023/09/19 11:40:55;;;;;;;7.00;5.07;;;;;;;21.99;53.15;95014.47;5096584;28;20238;-65
2023/09/19 11:43:34;;;;;;;6.63;6.03;;;;;;;21.97;52.68;95008.50;5097422;28;20181;-65
2023/09/19 11:46:09;;;;;;;7.05;5.05;;;;;;;21.96;52.95;95017.34;5096595;28;20231;-65
2023/09/19 11:48:44;;;;;;;6.30;5.70;;;;;;;22.01;53.36;95008.44;5097048;28;20191;-65
2023/09/19 11:51:27;;;;;;;6.28;5.68;;;;;;;22.04;52.78;95004.75;5096171;28;20206;-65
2023/09/19 11:53:56;;;;;;;7.57;5.78;;;;;;;22.09;52.65;95004.28;5096163;28;20212;-65
2023/09/19 11:56:27;;;;;;;6.65;5.72;;;;;;;22.17;52.57;95004.97;5096821;28;20173;-65